Terminal Aerodrome Forecast
Issued by NWS

Home | Current Version | Previous Version | Text Only | Print | Product List | Glossary On
Versions: 1 2 3 4 5 6 7 8 9 10 11 12 13 14 15 16 17 18 19 20 21
726
FTUS46 KLOX 230700 AAA
TAFSBA
TAF AMD
KSBA 230700Z 2307/2406 VRB03KT P6SM OVC007
     FM230900 10005KT 4SM BR OVC005
     FM231200 11005KT 1/2SM FG OVC002
     FM231600 16005KT 4SM BR OVC004
     FM231800 17006KT 5SM BR OVC007
     FM232000 23008KT P6SM SCT010
     FM240500 VRB03KT P6SM SKC=

USA.gov is the U.S. government's official web portal to all federal, state and local government web resources and services.